sensor_id;sensor_type;location;lat;lon;timestamp;pressure;altitude;pressure_sealevel;temperature
68446;BMP280;35789;48.414;12.768;2024-02-23T00:00:00;94870.0;;;
68446;BMP280;35789;48.414;12.768;2024-02-23T00:05:00;94880.0;;;
68446;BMP280;35789;48.414;12.768;2024-02-23T00:10:00;94900.0;;;
68446;BMP280;35789;48.414;12.768;2024-02-23T00:15:00;94930.0;;;
68446;BMP280;35789;48.414;12.768;2024-02-23T00:20:00;95000.0;;;
68446;BMP280;35789;48.414;12.768;2024-02-23T00:25:00;95090.0;;;
68446;BMP280;35789;48.414;12.768;2024-02-23T00:30:00;95110.0;;;
68446;BMP280;35789;48.414;12.768;2024-02-23T00:35:00;95080.0;;;
68446;BMP280;35789;48.414;12.768;2024-02-23T00:40:01;95080.0;;;
68446;BMP280;35789;48.414;12.768;2024-02-23T00:45:00;95060.0;;;
68446;BMP280;35789;48.414;12.768;2024-02-23T00:50:00;95070.0;;;
68446;BMP280;35789;48.414;12.768;2024-02-23T00:55:00;95070.0;;;
68446;BMP280;35789;48.414;12.768;2024-02-23T01:00:00;95080.0;;;
68446;BMP280;35789;48.414;12.768;2024-02-23T01:05:00;95070.0;;;
68446;BMP280;35789;48.414;12.768;2024-02-23T01:10:00;95070.0;;;
68446;BMP280;35789;48.414;12.768;2024-02-23T01:15:00;95070.0;;;
68446;BMP280;35789;48.414;12.768;2024-02-23T01:20:00;95080.0;;;
68446;BMP280;35789;48.414;12.768;2024-02-23T01:25:00;95090.0;;;
68446;BMP280;35789;48.414;12.768;2024-02-23T01:30:00;95100.0;;;
68446;BMP280;35789;48.414;12.768;2024-02-23T01:35:00;95110.0;;;
68446;BMP280;35789;48.414;12.768;2024-02-23T01:40:00;95100.0;;;
68446;BMP280;35789;48.414;12.768;2024-02-23T01:45:00;95110.0;;;
68446;BMP280;35789;48.414;12.768;2024-02-23T01:50:00;95110.0;;;
68446;BMP280;35789;48.414;12.768;2024-02-23T01:55:01;95120.0;;;
68446;BMP280;35789;48.414;12.768;2024-02-23T02:00:00;95110.0;;;
68446;BMP280;35789;48.414;12.768;2024-02-23T02:05:00;95120.0;;;
68446;BMP280;35789;48.414;12.768;2024-02-23T02:10:00;95130.0;;;
68446;BMP280;35789;48.414;12.768;2024-02-23T02:15:01;95130.0;;;
68446;BMP280;35789;48.414;12.768;2024-02-23T02:20:02;95140.0;;;
68446;BMP280;35789;48.414;12.768;2024-02-23T02:25:00;95140.0;;;
68446;BMP280;35789;48.414;12.768;2024-02-23T02:30:00;95150.0;;;
68446;BMP280;35789;48.414;12.768;2024-02-23T02:35:00;95140.0;;;
68446;BMP280;35789;48.414;12.768;2024-02-23T02:40:00;95150.0;;;
68446;BMP280;35789;48.414;12.768;2024-02-23T02:45:00;95150.0;;;
68446;BMP280;35789;48.414;12.768;2024-02-23T02:50:00;95160.0;;;
68446;BMP280;35789;48.414;12.768;2024-02-23T02:55:00;95160.0;;;
68446;BMP280;35789;48.414;12.768;2024-02-23T03:00:00;95170.0;;;
68446;BMP280;35789;48.414;12.768;2024-02-23T03:05:00;95170.0;;;
68446;BMP280;35789;48.414;12.768;2024-02-23T03:10:00;95180.0;;;
68446;BMP280;35789;48.414;12.768;2024-02-23T03:15:00;95190.0;;;
68446;BMP280;35789;48.414;12.768;2024-02-23T03:20:00;95200.0;;;
68446;BMP280;35789;48.414;12.768;2024-02-23T03:25:00;95200.0;;;
68446;BMP280;35789;48.414;12.768;2024-02-23T03:30:00;95200.0;;;
68446;BMP280;35789;48.414;12.768;2024-02-23T03:35:00;95210.0;;;
68446;BMP280;35789;48.414;12.768;2024-02-23T03:40:00;95230.0;;;
68446;BMP280;35789;48.414;12.768;2024-02-23T03:45:00;95230.0;;;
68446;BMP280;35789;48.414;12.768;2024-02-23T03:50:00;95240.0;;;
68446;BMP280;35789;48.414;12.768;2024-02-23T03:55:00;95250.0;;;
68446;BMP280;35789;48.414;12.768;2024-02-23T04:00:00;95260.0;;;
68446;BMP280;35789;48.414;12.768;2024-02-23T04:05:00;95290.0;;;
68446;BMP280;35789;48.414;12.768;2024-02-23T04:10:00;95310.0;;;
68446;BMP280;35789;48.414;12.768;2024-02-23T04:15:00;95320.0;;;
68446;BMP280;35789;48.414;12.768;2024-02-23T04:20:05;95340.0;;;
68446;BMP280;35789;48.414;12.768;2024-02-23T04:25:00;95340.0;;;
68446;BMP280;35789;48.414;12.768;2024-02-23T04:30:00;95340.0;;;
68446;BMP280;35789;48.414;12.768;2024-02-23T04:35:00;95350.0;;;
68446;BMP280;35789;48.414;12.768;2024-02-23T04:40:00;95350.0;;;
68446;BMP280;35789;48.414;12.768;2024-02-23T04:45:00;95350.0;;;
68446;BMP280;35789;48.414;12.768;2024-02-23T04:50:00;95350.0;;;
68446;BMP280;35789;48.414;12.768;2024-02-23T04:55:00;95350.0;;;
68446;BMP280;35789;48.414;12.768;2024-02-23T05:00:00;95340.0;;;
68446;BMP280;35789;48.414;12.768;2024-02-23T05:05:00;95350.0;;;
68446;BMP280;35789;48.414;12.768;2024-02-23T05:10:00;95340.0;;;
68446;BMP280;35789;48.414;12.768;2024-02-23T05:15:00;95330.0;;;
68446;BMP280;35789;48.414;12.768;2024-02-23T05:20:00;95330.0;;;
68446;BMP280;35789;48.414;12.768;2024-02-23T05:25:00;95340.0;;;
68446;BMP280;35789;48.414;12.768;2024-02-23T05:30:00;95340.0;;;
68446;BMP280;35789;48.414;12.768;2024-02-23T05:40:00;95340.0;;;
68446;BMP280;35789;48.414;12.768;2024-02-23T05:45:00;95340.0;;;
68446;BMP280;35789;48.414;12.768;2024-02-23T05:50:00;95340.0;;;
68446;BMP280;35789;48.414;12.768;2024-02-23T05:55:00;95340.0;;;
68446;BMP280;35789;48.414;12.768;2024-02-23T06:00:00;95360.0;;;
68446;BMP280;35789;48.414;12.768;2024-02-23T06:05:00;95340.0;;;
68446;BMP280;35789;48.414;12.768;2024-02-23T06:10:00;95350.0;;;
68446;BMP280;35789;48.414;12.768;2024-02-23T06:15:00;95360.0;;;
68446;BMP280;35789;48.414;12.768;2024-02-23T06:20:00;95350.0;;;
68446;BMP280;35789;48.414;12.768;2024-02-23T06:25:00;95340.0;;;
68446;BMP280;35789;48.414;12.768;2024-02-23T06:30:00;95350.0;;;
68446;BMP280;35789;48.414;12.768;2024-02-23T06:35:00;95350.0;;;
68446;BMP280;35789;48.414;12.768;2024-02-23T06:40:00;95360.0;;;
68446;BMP280;35789;48.414;12.768;2024-02-23T06:45:00;95360.0;;;
68446;BMP280;35789;48.414;12.768;2024-02-23T06:50:00;95380.0;;;
68446;BMP280;35789;48.414;12.768;2024-02-23T06:55:00;95390.0;;;
68446;BMP280;35789;48.414;12.768;2024-02-23T07:00:00;95380.0;;;
68446;BMP280;35789;48.414;12.768;2024-02-23T07:05:00;95380.0;;;
68446;BMP280;35789;48.414;12.768;2024-02-23T07:10:00;95390.0;;;
68446;BMP280;35789;48.414;12.768;2024-02-23T07:15:00;95410.0;;;
68446;BMP280;35789;48.414;12.768;2024-02-23T07:20:00;95410.0;;;
68446;BMP280;35789;48.414;12.768;2024-02-23T07:25:00;95400.0;;;
68446;BMP280;35789;48.414;12.768;2024-02-23T07:30:00;95400.0;;;
68446;BMP280;35789;48.414;12.768;2024-02-23T07:35:00;95410.0;;;
68446;BMP280;35789;48.414;12.768;2024-02-23T07:40:00;95410.0;;;
68446;BMP280;35789;48.414;12.768;2024-02-23T07:45:00;95410.0;;;
68446;BMP280;35789;48.414;12.768;2024-02-23T07:50:00;95410.0;;;
68446;BMP280;35789;48.414;12.768;2024-02-23T07:55:00;95400.0;;;
68446;BMP280;35789;48.414;12.768;2024-02-23T08:00:00;95410.0;;;
68446;BMP280;35789;48.414;12.768;2024-02-23T08:05:00;95420.0;;;
68446;BMP280;35789;48.414;12.768;2024-02-23T08:10:00;95430.0;;;
68446;BMP280;35789;48.414;12.768;2024-02-23T08:15:00;95430.0;;;
68446;BMP280;35789;48.414;12.768;2024-02-23T08:20:00;95430.0;;;
68446;BMP280;35789;48.414;12.768;2024-02-23T08:25:00;95430.0;;;
68446;BMP280;35789;48.414;12.768;2024-02-23T08:30:00;95410.0;;;
68446;BMP280;35789;48.414;12.768;2024-02-23T08:35:00;95400.0;;;
68446;BMP280;35789;48.414;12.768;2024-02-23T08:40:00;95400.0;;;
68446;BMP280;35789;48.414;12.768;2024-02-23T08:45:00;95380.0;;;
68446;BMP280;35789;48.414;12.768;2024-02-23T08:50:01;95380.0;;;
68446;BMP280;35789;48.414;12.768;2024-02-23T08:55:00;95370.0;;;
68446;BMP280;35789;48.414;12.768;2024-02-23T09:00:00;95370.0;;;
68446;BMP280;35789;48.414;12.768;2024-02-23T09:05:00;95380.0;;;
68446;BMP280;35789;48.414;12.768;2024-02-23T09:10:00;95370.0;;;
68446;BMP280;35789;48.414;12.768;2024-02-23T09:15:00;95370.0;;;
68446;BMP280;35789;48.414;12.768;2024-02-23T09:20:00;95360.0;;;
68446;BMP280;35789;48.414;12.768;2024-02-23T09:25:00;95370.0;;;
68446;BMP280;35789;48.414;12.768;2024-02-23T09:30:00;95400.0;;;
68446;BMP280;35789;48.414;12.768;2024-02-23T09:35:00;95410.0;;;
68446;BMP280;35789;48.414;12.768;2024-02-23T09:40:00;95410.0;;;
68446;BMP280;35789;48.414;12.768;2024-02-23T09:45:00;95420.0;;;
68446;BMP280;35789;48.414;12.768;2024-02-23T09:50:03;95440.0;;;
68446;BMP280;35789;48.414;12.768;2024-02-23T09:55:00;95440.0;;;
68446;BMP280;35789;48.414;12.768;2024-02-23T10:00:01;95450.0;;;
68446;BMP280;35789;48.414;12.768;2024-02-23T10:05:01;95460.0;;;
68446;BMP280;35789;48.414;12.768;2024-02-23T10:10:00;95470.0;;;
68446;BMP280;35789;48.414;12.768;2024-02-23T10:15:00;95460.0;;;
68446;BMP280;35789;48.414;12.768;2024-02-23T10:20:00;95450.0;;;
68446;BMP280;35789;48.414;12.768;2024-02-23T10:25:00;95450.0;;;
68446;BMP280;35789;48.414;12.768;2024-02-23T10:30:00;95450.0;;;
68446;BMP280;35789;48.414;12.768;2024-02-23T10:35:00;95450.0;;;
68446;BMP280;35789;48.414;12.768;2024-02-23T10:40:01;95460.0;;;
68446;BMP280;35789;48.414;12.768;2024-02-23T10:45:01;95450.0;;;
68446;BMP280;35789;48.414;12.768;2024-02-23T10:50:01;95440.0;;;
68446;BMP280;35789;48.414;12.768;2024-02-23T10:55:01;95440.0;;;
68446;BMP280;35789;48.414;12.768;2024-02-23T11:00:00;95440.0;;;
68446;BMP280;35789;48.414;12.768;2024-02-23T11:05:01;95440.0;;;
68446;BMP280;35789;48.414;12.768;2024-02-23T11:10:00;95440.0;;;
68446;BMP280;35789;48.414;12.768;2024-02-23T11:15:01;95440.0;;;
68446;BMP280;35789;48.414;12.768;2024-02-23T11:20:03;95430.0;;;
68446;BMP280;35789;48.414;12.768;2024-02-23T11:25:03;95430.0;;;
68446;BMP280;35789;48.414;12.768;2024-02-23T11:30:03;95440.0;;;
68446;BMP280;35789;48.414;12.768;2024-02-23T11:35:01;95440.0;;;
68446;BMP280;35789;48.414;12.768;2024-02-23T11:40:02;95440.0;;;
68446;BMP280;35789;48.414;12.768;2024-02-23T11:45:01;95450.0;;;
68446;BMP280;35789;48.414;12.768;2024-02-23T11:50:00;95440.0;;;
68446;BMP280;35789;48.414;12.768;2024-02-23T11:55:00;95450.0;;;
68446;BMP280;35789;48.414;12.768;2024-02-23T12:00:01;95450.0;;;
68446;BMP280;35789;48.414;12.768;2024-02-23T12:05:00;95440.0;;;
68446;BMP280;35789;48.414;12.768;2024-02-23T12:10:00;95450.0;;;
68446;BMP280;35789;48.414;12.768;2024-02-23T12:15:00;95460.0;;;
68446;BMP280;35789;48.414;12.768;2024-02-23T12:20:03;95450.0;;;
68446;BMP280;35789;48.414;12.768;2024-02-23T12:25:00;95450.0;;;
68446;BMP280;35789;48.414;12.768;2024-02-23T12:30:00;95460.0;;;
68446;BMP280;35789;48.414;12.768;2024-02-23T12:35:00;95470.0;;;
68446;BMP280;35789;48.414;12.768;2024-02-23T12:40:01;95460.0;;;
68446;BMP280;35789;48.414;12.768;2024-02-23T12:45:00;95460.0;;;
68446;BMP280;35789;48.414;12.768;2024-02-23T12:50:00;95470.0;;;
68446;BMP280;35789;48.414;12.768;2024-02-23T12:55:00;95460.0;;;
68446;BMP280;35789;48.414;12.768;2024-02-23T13:00:00;95440.0;;;
68446;BMP280;35789;48.414;12.768;2024-02-23T13:05:00;95430.0;;;
68446;BMP280;35789;48.414;12.768;2024-02-23T13:10:00;95420.0;;;
68446;BMP280;35789;48.414;12.768;2024-02-23T13:15:00;95420.0;;;
68446;BMP280;35789;48.414;12.768;2024-02-23T13:20:00;95450.0;;;
68446;BMP280;35789;48.414;12.768;2024-02-23T13:25:00;95450.0;;;
68446;BMP280;35789;48.414;12.768;2024-02-23T13:30:00;95460.0;;;
68446;BMP280;35789;48.414;12.768;2024-02-23T13:35:00;95440.0;;;
68446;BMP280;35789;48.414;12.768;2024-02-23T13:40:00;95440.0;;;
68446;BMP280;35789;48.414;12.768;2024-02-23T13:45:00;95440.0;;;
68446;BMP280;35789;48.414;12.768;2024-02-23T13:50:00;95450.0;;;
68446;BMP280;35789;48.414;12.768;2024-02-23T13:55:00;95440.0;;;
68446;BMP280;35789;48.414;12.768;2024-02-23T14:00:00;95450.0;;;
68446;BMP280;35789;48.414;12.768;2024-02-23T14:05:01;95450.0;;;
68446;BMP280;35789;48.414;12.768;2024-02-23T14:10:00;95450.0;;;
68446;BMP280;35789;48.414;12.768;2024-02-23T14:15:00;95450.0;;;
68446;BMP280;35789;48.414;12.768;2024-02-23T14:20:00;95450.0;;;
68446;BMP280;35789;48.414;12.768;2024-02-23T14:25:00;95430.0;;;
68446;BMP280;35789;48.414;12.768;2024-02-23T14:30:00;95390.0;;;
68446;BMP280;35789;48.414;12.768;2024-02-23T14:35:02;95380.0;;;
68446;BMP280;35789;48.414;12.768;2024-02-23T14:40:00;95420.0;;;
68446;BMP280;35789;48.414;12.768;2024-02-23T14:45:00;95400.0;;;
68446;BMP280;35789;48.414;12.768;2024-02-23T14:50:00;95410.0;;;
68446;BMP280;35789;48.414;12.768;2024-02-23T14:55:00;95410.0;;;
68446;BMP280;35789;48.414;12.768;2024-02-23T15:00:00;95430.0;;;
68446;BMP280;35789;48.414;12.768;2024-02-23T15:05:00;95430.0;;;
68446;BMP280;35789;48.414;12.768;2024-02-23T15:10:01;95450.0;;;
68446;BMP280;35789;48.414;12.768;2024-02-23T15:15:00;95450.0;;;
68446;BMP280;35789;48.414;12.768;2024-02-23T15:20:00;95460.0;;;
68446;BMP280;35789;48.414;12.768;2024-02-23T15:25:00;95460.0;;;
68446;BMP280;35789;48.414;12.768;2024-02-23T15:30:00;95470.0;;;
68446;BMP280;35789;48.414;12.768;2024-02-23T15:35:00;95460.0;;;
68446;BMP280;35789;48.414;12.768;2024-02-23T15:40:01;95450.0;;;
68446;BMP280;35789;48.414;12.768;2024-02-23T15:45:00;95440.0;;;
68446;BMP280;35789;48.414;12.768;2024-02-23T15:50:00;95430.0;;;
68446;BMP280;35789;48.414;12.768;2024-02-23T15:55:00;95420.0;;;
68446;BMP280;35789;48.414;12.768;2024-02-23T16:00:00;95410.0;;;
68446;BMP280;35789;48.414;12.768;2024-02-23T16:05:00;95400.0;;;
68446;BMP280;35789;48.414;12.768;2024-02-23T16:10:00;95420.0;;;
68446;BMP280;35789;48.414;12.768;2024-02-23T16:15:00;95420.0;;;
68446;BMP280;35789;48.414;12.768;2024-02-23T16:20:00;95420.0;;;
68446;BMP280;35789;48.414;12.768;2024-02-23T16:25:00;95410.0;;;
68446;BMP280;35789;48.414;12.768;2024-02-23T16:30:01;95430.0;;;
68446;BMP280;35789;48.414;12.768;2024-02-23T16:35:00;95430.0;;;
68446;BMP280;35789;48.414;12.768;2024-02-23T16:40:00;95440.0;;;
68446;BMP280;35789;48.414;12.768;2024-02-23T16:45:00;95440.0;;;
68446;BMP280;35789;48.414;12.768;2024-02-23T16:50:00;95450.0;;;
68446;BMP280;35789;48.414;12.768;2024-02-23T16:55:00;95440.0;;;
68446;BMP280;35789;48.414;12.768;2024-02-23T17:00:01;95440.0;;;
68446;BMP280;35789;48.414;12.768;2024-02-23T17:05:00;95430.0;;;
68446;BMP280;35789;48.414;12.768;2024-02-23T17:10:00;95430.0;;;
68446;BMP280;35789;48.414;12.768;2024-02-23T17:15:00;95410.0;;;
68446;BMP280;35789;48.414;12.768;2024-02-23T17:20:00;95420.0;;;
68446;BMP280;35789;48.414;12.768;2024-02-23T17:25:00;95430.0;;;
68446;BMP280;35789;48.414;12.768;2024-02-23T17:30:00;95440.0;;;
68446;BMP280;35789;48.414;12.768;2024-02-23T17:35:00;95430.0;;;
68446;BMP280;35789;48.414;12.768;2024-02-23T17:40:00;95430.0;;;
68446;BMP280;35789;48.414;12.768;2024-02-23T17:45:00;95420.0;;;
68446;BMP280;35789;48.414;12.768;2024-02-23T17:50:00;95410.0;;;
68446;BMP280;35789;48.414;12.768;2024-02-23T17:55:00;95410.0;;;
68446;BMP280;35789;48.414;12.768;2024-02-23T18:00:00;95430.0;;;
68446;BMP280;35789;48.414;12.768;2024-02-23T18:05:00;95440.0;;;
68446;BMP280;35789;48.414;12.768;2024-02-23T18:10:00;95460.0;;;
68446;BMP280;35789;48.414;12.768;2024-02-23T18:15:00;95460.0;;;
68446;BMP280;35789;48.414;12.768;2024-02-23T18:20:00;95450.0;;;
68446;BMP280;35789;48.414;12.768;2024-02-23T18:25:00;95430.0;;;
68446;BMP280;35789;48.414;12.768;2024-02-23T18:30:00;95440.0;;;
68446;BMP280;35789;48.414;12.768;2024-02-23T18:35:00;95440.0;;;
68446;BMP280;35789;48.414;12.768;2024-02-23T18:40:00;95430.0;;;
68446;BMP280;35789;48.414;12.768;2024-02-23T18:45:00;95430.0;;;
68446;BMP280;35789;48.414;12.768;2024-02-23T18:50:00;95400.0;;;
68446;BMP280;35789;48.414;12.768;2024-02-23T18:55:00;95380.0;;;
68446;BMP280;35789;48.414;12.768;2024-02-23T19:00:00;95390.0;;;
68446;BMP280;35789;48.414;12.768;2024-02-23T19:05:01;95430.0;;;
68446;BMP280;35789;48.414;12.768;2024-02-23T19:10:00;95430.0;;;
68446;BMP280;35789;48.414;12.768;2024-02-23T19:15:00;95420.0;;;
68446;BMP280;35789;48.414;12.768;2024-02-23T19:20:00;95360.0;;;
68446;BMP280;35789;48.414;12.768;2024-02-23T19:25:00;95390.0;;;
68446;BMP280;35789;48.414;12.768;2024-02-23T19:30:00;95440.0;;;
68446;BMP280;35789;48.414;12.768;2024-02-23T19:35:00;95450.0;;;
68446;BMP280;35789;48.414;12.768;2024-02-23T19:40:00;95440.0;;;
68446;BMP280;35789;48.414;12.768;2024-02-23T19:45:00;95410.0;;;
68446;BMP280;35789;48.414;12.768;2024-02-23T19:50:01;95400.0;;;
68446;BMP280;35789;48.414;12.768;2024-02-23T19:55:00;95380.0;;;
68446;BMP280;35789;48.414;12.768;2024-02-23T20:00:00;95350.0;;;
68446;BMP280;35789;48.414;12.768;2024-02-23T20:05:00;95340.0;;;
68446;BMP280;35789;48.414;12.768;2024-02-23T20:10:00;95340.0;;;
68446;BMP280;35789;48.414;12.768;2024-02-23T20:15:00;95380.0;;;
68446;BMP280;35789;48.414;12.768;2024-02-23T20:20:00;95400.0;;;
68446;BMP280;35789;48.414;12.768;2024-02-23T20:25:00;95400.0;;;
68446;BMP280;35789;48.414;12.768;2024-02-23T20:30:00;95400.0;;;
68446;BMP280;35789;48.414;12.768;2024-02-23T20:35:00;95390.0;;;
68446;BMP280;35789;48.414;12.768;2024-02-23T20:40:00;95360.0;;;
68446;BMP280;35789;48.414;12.768;2024-02-23T20:45:00;95360.0;;;
68446;BMP280;35789;48.414;12.768;2024-02-23T20:50:00;95360.0;;;
68446;BMP280;35789;48.414;12.768;2024-02-23T20:55:00;95360.0;;;
68446;BMP280;35789;48.414;12.768;2024-02-23T21:00:02;95350.0;;;
68446;BMP280;35789;48.414;12.768;2024-02-23T21:05:00;95370.0;;;
68446;BMP280;35789;48.414;12.768;2024-02-23T21:10:00;95370.0;;;
68446;BMP280;35789;48.414;12.768;2024-02-23T21:15:00;95370.0;;;
68446;BMP280;35789;48.414;12.768;2024-02-23T21:20:00;95380.0;;;
68446;BMP280;35789;48.414;12.768;2024-02-23T21:25:00;95380.0;;;
68446;BMP280;35789;48.414;12.768;2024-02-23T21:30:00;95380.0;;;
68446;BMP280;35789;48.414;12.768;2024-02-23T21:35:00;95370.0;;;
68446;BMP280;35789;48.414;12.768;2024-02-23T21:40:00;95390.0;;;
68446;BMP280;35789;48.414;12.768;2024-02-23T21:45:00;95410.0;;;
68446;BMP280;35789;48.414;12.768;2024-02-23T21:50:00;95410.0;;;
68446;BMP280;35789;48.414;12.768;2024-02-23T21:55:00;95420.0;;;
68446;BMP280;35789;48.414;12.768;2024-02-23T22:00:01;95430.0;;;
68446;BMP280;35789;48.414;12.768;2024-02-23T22:05:00;95410.0;;;
68446;BMP280;35789;48.414;12.768;2024-02-23T22:10:00;95400.0;;;
68446;BMP280;35789;48.414;12.768;2024-02-23T22:15:00;95400.0;;;
68446;BMP280;35789;48.414;12.768;2024-02-23T22:20:00;95390.0;;;
68446;BMP280;35789;48.414;12.768;2024-02-23T22:25:00;95390.0;;;
68446;BMP280;35789;48.414;12.768;2024-02-23T22:30:00;95380.0;;;
68446;BMP280;35789;48.414;12.768;2024-02-23T22:35:00;95370.0;;;
68446;BMP280;35789;48.414;12.768;2024-02-23T22:40:00;95380.0;;;
68446;BMP280;35789;48.414;12.768;2024-02-23T22:45:00;95400.0;;;
68446;BMP280;35789;48.414;12.768;2024-02-23T22:50:00;95400.0;;;
68446;BMP280;35789;48.414;12.768;2024-02-23T22:55:00;95400.0;;;
68446;BMP280;35789;48.414;12.768;2024-02-23T23:00:00;95380.0;;;
68446;BMP280;35789;48.414;12.768;2024-02-23T23:05:00;95380.0;;;
68446;BMP280;35789;48.414;12.768;2024-02-23T23:10:00;95370.0;;;
68446;BMP280;35789;48.414;12.768;2024-02-23T23:15:00;95380.0;;;
68446;BMP280;35789;48.414;12.768;2024-02-23T23:20:00;95390.0;;;
68446;BMP280;35789;48.414;12.768;2024-02-23T23:25:00;95400.0;;;
68446;BMP280;35789;48.414;12.768;2024-02-23T23:30:00;95400.0;;;
68446;BMP280;35789;48.414;12.768;2024-02-23T23:35:00;95400.0;;;
68446;BMP280;35789;48.414;12.768;2024-02-23T23:40:00;95400.0;;;
68446;BMP280;35789;48.414;12.768;2024-02-23T23:45:00;95410.0;;;
68446;BMP280;35789;48.414;12.768;2024-02-23T23:50:00;95410.0;;;
68446;BMP280;35789;48.414;12.768;2024-02-23T23:55:00;95410.0;;;
